sensor_id;sensor_type;location;lat;lon;timestamp;temperature;humidity
13049;DHT22;6591;51.446;5.404;2022-07-23T00:01:25;18.50;99.90
13049;DHT22;6591;51.446;5.404;2022-07-23T00:03:58;17.70;99.90
13049;DHT22;6591;51.446;5.404;2022-07-23T00:06:25;17.60;99.90
13049;DHT22;6591;51.446;5.404;2022-07-23T00:08:53;17.60;99.90
13049;DHT22;6591;51.446;5.404;2022-07-23T00:11:24;17.50;99.90
13049;DHT22;6591;51.446;5.404;2022-07-23T00:13:51;17.60;99.90
13049;DHT22;6591;51.446;5.404;2022-07-23T00:16:19;17.50;99.90
13049;DHT22;6591;51.446;5.404;2022-07-23T00:18:47;17.50;99.90
13049;DHT22;6591;51.446;5.404;2022-07-23T00:21:14;19.70;99.90
13049;DHT22;6591;51.446;5.404;2022-07-23T00:23:41;17.50;99.90
13049;DHT22;6591;51.446;5.404;2022-07-23T00:26:10;17.50;99.90
13049;DHT22;6591;51.446;5.404;2022-07-23T00:28:37;19.70;99.90
13049;DHT22;6591;51.446;5.404;2022-07-23T00:31:04;19.40;99.90
13049;DHT22;6591;51.446;5.404;2022-07-23T00:33:31;17.50;99.90
13049;DHT22;6591;51.446;5.404;2022-07-23T00:35:59;19.60;99.90
13049;DHT22;6591;51.446;5.404;2022-07-23T00:38:26;20.00;99.90
13049;DHT22;6591;51.446;5.404;2022-07-23T00:40:54;18.40;99.90
13049;DHT22;6591;51.446;5.404;2022-07-23T00:43:23;17.30;99.90
13049;DHT22;6591;51.446;5.404;2022-07-23T00:45:56;18.20;99.90
13049;DHT22;6591;51.446;5.404;2022-07-23T00:48:26;19.70;99.90
13049;DHT22;6591;51.446;5.404;2022-07-23T00:50:55;17.20;99.90
13049;DHT22;6591;51.446;5.404;2022-07-23T00:53:23;17.10;99.90
13049;DHT22;6591;51.446;5.404;2022-07-23T00:55:51;18.30;99.90
13049;DHT22;6591;51.446;5.404;2022-07-23T00:58:22;19.30;99.90
13049;DHT22;6591;51.446;5.404;2022-07-23T01:00:49;18.00;99.90
13049;DHT22;6591;51.446;5.404;2022-07-23T01:03:17;17.00;99.90
13049;DHT22;6591;51.446;5.404;2022-07-23T01:05:44;16.90;99.90
13049;DHT22;6591;51.446;5.404;2022-07-23T01:08:14;17.90;99.90
13049;DHT22;6591;51.446;5.404;2022-07-23T01:10:42;16.90;99.90
13049;DHT22;6591;51.446;5.404;2022-07-23T01:13:10;16.90;99.90
13049;DHT22;6591;51.446;5.404;2022-07-23T01:15:38;16.80;99.90
13049;DHT22;6591;51.446;5.404;2022-07-23T01:18:10;16.80;99.90
13049;DHT22;6591;51.446;5.404;2022-07-23T01:20:43;18.50;99.90
13049;DHT22;6591;51.446;5.404;2022-07-23T01:23:10;18.30;99.90
13049;DHT22;6591;51.446;5.404;2022-07-23T01:25:56;16.80;99.90
13049;DHT22;6591;51.446;5.404;2022-07-23T01:28:25;18.40;99.90
13049;DHT22;6591;51.446;5.404;2022-07-23T01:30:57;16.60;99.90
13049;DHT22;6591;51.446;5.404;2022-07-23T01:33:24;16.70;99.90
13049;DHT22;6591;51.446;5.404;2022-07-23T01:35:52;16.60;99.90
13049;DHT22;6591;51.446;5.404;2022-07-23T01:38:23;17.20;99.90
13049;DHT22;6591;51.446;5.404;2022-07-23T01:40:51;17.30;99.90
13049;DHT22;6591;51.446;5.404;2022-07-23T01:43:24;16.70;99.90
13049;DHT22;6591;51.446;5.404;2022-07-23T01:45:54;16.60;99.90
13049;DHT22;6591;51.446;5.404;2022-07-23T01:48:23;17.10;99.90
13049;DHT22;6591;51.446;5.404;2022-07-23T01:51:11;18.70;99.90
13049;DHT22;6591;51.446;5.404;2022-07-23T01:53:43;16.50;99.90
13049;DHT22;6591;51.446;5.404;2022-07-23T01:56:10;16.50;99.90
13049;DHT22;6591;51.446;5.404;2022-07-23T01:58:39;18.40;99.90
13049;DHT22;6591;51.446;5.404;2022-07-23T02:01:06;16.40;99.90
13049;DHT22;6591;51.446;5.404;2022-07-23T02:03:34;16.40;99.90
13049;DHT22;6591;51.446;5.404;2022-07-23T02:06:02;17.60;99.90
13049;DHT22;6591;51.446;5.404;2022-07-23T02:08:29;16.30;99.90
13049;DHT22;6591;51.446;5.404;2022-07-23T02:11:01;16.30;99.90
13049;DHT22;6591;51.446;5.404;2022-07-23T02:13:29;16.60;99.90
13049;DHT22;6591;51.446;5.404;2022-07-23T02:16:00;18.40;99.90
13049;DHT22;6591;51.446;5.404;2022-07-23T02:18:31;17.80;99.90
13049;DHT22;6591;51.446;5.404;2022-07-23T02:20:58;16.10;99.90
13049;DHT22;6591;51.446;5.404;2022-07-23T02:23:29;16.10;99.90
13049;DHT22;6591;51.446;5.404;2022-07-23T02:25:56;16.20;99.90
13049;DHT22;6591;51.446;5.404;2022-07-23T02:28:23;16.20;99.90
13049;DHT22;6591;51.446;5.404;2022-07-23T02:31:16;16.80;99.90
13049;DHT22;6591;51.446;5.404;2022-07-23T02:33:43;17.90;99.90
13049;DHT22;6591;51.446;5.404;2022-07-23T02:36:10;15.90;99.90
13049;DHT22;6591;51.446;5.404;2022-07-23T02:38:37;15.80;99.90
13049;DHT22;6591;51.446;5.404;2022-07-23T02:41:07;17.50;99.90
13049;DHT22;6591;51.446;5.404;2022-07-23T02:43:36;15.70;99.90
13049;DHT22;6591;51.446;5.404;2022-07-23T02:46:04;14.70;99.90
13049;DHT22;6591;51.446;5.404;2022-07-23T02:48:31;15.70;99.90
13049;DHT22;6591;51.446;5.404;2022-07-23T02:51:01;17.70;99.90
13049;DHT22;6591;51.446;5.404;2022-07-23T02:53:34;16.50;99.90
13049;DHT22;6591;51.446;5.404;2022-07-23T02:56:01;16.00;99.90
13049;DHT22;6591;51.446;5.404;2022-07-23T02:58:29;15.50;99.90
13049;DHT22;6591;51.446;5.404;2022-07-23T03:00:56;15.70;99.90
13049;DHT22;6591;51.446;5.404;2022-07-23T03:03:26;15.90;99.90
13049;DHT22;6591;51.446;5.404;2022-07-23T03:05:56;15.40;99.90
13049;DHT22;6591;51.446;5.404;2022-07-23T03:08:23;15.40;99.90
13049;DHT22;6591;51.446;5.404;2022-07-23T03:10:52;15.40;99.90
13049;DHT22;6591;51.446;5.404;2022-07-23T03:13:20;17.50;99.90
13049;DHT22;6591;51.446;5.404;2022-07-23T03:15:48;13.60;99.90
13049;DHT22;6591;51.446;5.404;2022-07-23T03:18:15;15.90;99.90
13049;DHT22;6591;51.446;5.404;2022-07-23T03:20:43;17.20;99.90
13049;DHT22;6591;51.446;5.404;2022-07-23T03:23:10;17.20;99.90
13049;DHT22;6591;51.446;5.404;2022-07-23T03:25:37;16.00;99.90
13049;DHT22;6591;51.446;5.404;2022-07-23T03:28:04;15.30;99.90
13049;DHT22;6591;51.446;5.404;2022-07-23T03:30:31;16.50;99.90
13049;DHT22;6591;51.446;5.404;2022-07-23T03:32:59;15.30;99.90
13049;DHT22;6591;51.446;5.404;2022-07-23T03:35:26;17.50;99.90
13049;DHT22;6591;51.446;5.404;2022-07-23T03:38:11;15.30;99.90
13049;DHT22;6591;51.446;5.404;2022-07-23T03:40:42;15.20;99.90
13049;DHT22;6591;51.446;5.404;2022-07-23T03:43:09;15.30;99.90
13049;DHT22;6591;51.446;5.404;2022-07-23T03:45:37;16.90;99.90
13049;DHT22;6591;51.446;5.404;2022-07-23T03:48:06;16.80;99.90
13049;DHT22;6591;51.446;5.404;2022-07-23T03:50:35;15.30;99.90
13049;DHT22;6591;51.446;5.404;2022-07-23T03:53:03;15.40;99.90
13049;DHT22;6591;51.446;5.404;2022-07-23T03:55:33;16.80;99.90
13049;DHT22;6591;51.446;5.404;2022-07-23T03:58:01;16.10;99.90
13049;DHT22;6591;51.446;5.404;2022-07-23T04:00:31;15.70;99.90
13049;DHT22;6591;51.446;5.404;2022-07-23T04:02:58;15.30;99.90
13049;DHT22;6591;51.446;5.404;2022-07-23T04:05:26;15.80;99.90
13049;DHT22;6591;51.446;5.404;2022-07-23T04:08:15;15.20;99.90
13049;DHT22;6591;51.446;5.404;2022-07-23T04:10:49;15.20;99.90
13049;DHT22;6591;51.446;5.404;2022-07-23T04:13:21;16.30;99.90
13049;DHT22;6591;51.446;5.404;2022-07-23T04:15:52;15.10;99.90
13049;DHT22;6591;51.446;5.404;2022-07-23T04:18:19;15.20;99.90
13049;DHT22;6591;51.446;5.404;2022-07-23T04:20:56;15.20;99.90
13049;DHT22;6591;51.446;5.404;2022-07-23T04:23:24;15.60;99.90
13049;DHT22;6591;51.446;5.404;2022-07-23T04:25:52;15.10;99.90
13049;DHT22;6591;51.446;5.404;2022-07-23T04:28:19;16.00;99.90
13049;DHT22;6591;51.446;5.404;2022-07-23T04:30:48;16.80;99.90
13049;DHT22;6591;51.446;5.404;2022-07-23T04:33:16;14.40;99.90
13049;DHT22;6591;51.446;5.404;2022-07-23T04:35:56;15.20;99.90
13049;DHT22;6591;51.446;5.404;2022-07-23T04:38:26;15.20;99.90
13049;DHT22;6591;51.446;5.404;2022-07-23T04:41:01;16.50;99.90
13049;DHT22;6591;51.446;5.404;2022-07-23T04:43:35;15.20;99.90
13049;DHT22;6591;51.446;5.404;2022-07-23T04:46:02;15.20;99.90
13049;DHT22;6591;51.446;5.404;2022-07-23T04:48:37;15.30;99.90
13049;DHT22;6591;51.446;5.404;2022-07-23T04:51:10;16.10;99.90
13049;DHT22;6591;51.446;5.404;2022-07-23T04:53:38;15.40;99.90
13049;DHT22;6591;51.446;5.404;2022-07-23T04:56:05;15.90;99.90
13049;DHT22;6591;51.446;5.404;2022-07-23T04:58:33;15.40;99.90
13049;DHT22;6591;51.446;5.404;2022-07-23T05:01:01;16.10;99.90
13049;DHT22;6591;51.446;5.404;2022-07-23T05:03:31;15.50;99.90
13049;DHT22;6591;51.446;5.404;2022-07-23T05:06:00;15.50;99.90
13049;DHT22;6591;51.446;5.404;2022-07-23T05:08:30;16.90;99.90
13049;DHT22;6591;51.446;5.404;2022-07-23T05:10:58;15.60;99.90
13049;DHT22;6591;51.446;5.404;2022-07-23T05:13:30;15.70;99.90
13049;DHT22;6591;51.446;5.404;2022-07-23T05:16:04;17.40;99.90
13049;DHT22;6591;51.446;5.404;2022-07-23T05:18:31;15.80;99.90
13049;DHT22;6591;51.446;5.404;2022-07-23T05:20:58;15.80;99.90
13049;DHT22;6591;51.446;5.404;2022-07-23T05:23:25;16.70;99.90
13049;DHT22;6591;51.446;5.404;2022-07-23T05:25:54;16.70;99.90
13049;DHT22;6591;51.446;5.404;2022-07-23T05:28:22;17.50;99.90
13049;DHT22;6591;51.446;5.404;2022-07-23T05:30:51;17.30;99.90
13049;DHT22;6591;51.446;5.404;2022-07-23T05:33:20;16.10;99.90
13049;DHT22;6591;51.446;5.404;2022-07-23T05:35:49;16.80;99.90
13049;DHT22;6591;51.446;5.404;2022-07-23T05:38:24;16.30;99.90
13049;DHT22;6591;51.446;5.404;2022-07-23T05:40:56;16.40;99.90
13049;DHT22;6591;51.446;5.404;2022-07-23T05:43:24;18.60;99.90
13049;DHT22;6591;51.446;5.404;2022-07-23T05:45:51;18.40;99.90
13049;DHT22;6591;51.446;5.404;2022-07-23T05:48:19;17.50;99.90
13049;DHT22;6591;51.446;5.404;2022-07-23T05:50:58;16.80;99.90
13049;DHT22;6591;51.446;5.404;2022-07-23T05:53:31;16.90;99.90
13049;DHT22;6591;51.446;5.404;2022-07-23T05:56:05;17.10;99.90
13049;DHT22;6591;51.446;5.404;2022-07-23T05:58:35;17.20;99.90
13049;DHT22;6591;51.446;5.404;2022-07-23T06:01:02;18.80;99.90
13049;DHT22;6591;51.446;5.404;2022-07-23T06:03:36;17.40;99.90
13049;DHT22;6591;51.446;5.404;2022-07-23T06:06:05;17.50;99.90
13049;DHT22;6591;51.446;5.404;2022-07-23T06:08:33;17.70;99.90
13049;DHT22;6591;51.446;5.404;2022-07-23T06:11:02;17.90;99.90
13049;DHT22;6591;51.446;5.404;2022-07-23T06:13:29;17.90;99.90
13049;DHT22;6591;51.446;5.404;2022-07-23T06:15:56;17.10;99.90
13049;DHT22;6591;51.446;5.404;2022-07-23T06:18:23;19.60;99.90
13049;DHT22;6591;51.446;5.404;2022-07-23T06:20:53;18.20;99.90
13049;DHT22;6591;51.446;5.404;2022-07-23T06:23:26;18.20;99.90
13049;DHT22;6591;51.446;5.404;2022-07-23T06:25:56;19.20;99.90
13049;DHT22;6591;51.446;5.404;2022-07-23T06:28:23;19.10;99.90
13049;DHT22;6591;51.446;5.404;2022-07-23T06:30:50;19.60;99.90
13049;DHT22;6591;51.446;5.404;2022-07-23T06:33:20;18.80;99.90
13049;DHT22;6591;51.446;5.404;2022-07-23T06:35:49;19.00;99.90
13049;DHT22;6591;51.446;5.404;2022-07-23T06:38:16;19.10;99.90
13049;DHT22;6591;51.446;5.404;2022-07-23T06:40:45;19.40;99.90
13049;DHT22;6591;51.446;5.404;2022-07-23T06:43:12;21.90;99.90
13049;DHT22;6591;51.446;5.404;2022-07-23T06:45:43;19.50;99.90
13049;DHT22;6591;51.446;5.404;2022-07-23T06:48:12;19.70;99.90
13049;DHT22;6591;51.446;5.404;2022-07-23T06:50:39;19.80;99.90
13049;DHT22;6591;51.446;5.404;2022-07-23T06:53:07;19.90;99.90
13049;DHT22;6591;51.446;5.404;2022-07-23T06:55:34;20.00;99.90
13049;DHT22;6591;51.446;5.404;2022-07-23T06:58:04;20.20;99.90
13049;DHT22;6591;51.446;5.404;2022-07-23T07:00:32;20.30;99.90
13049;DHT22;6591;51.446;5.404;2022-07-23T07:03:03;20.40;99.90
13049;DHT22;6591;51.446;5.404;2022-07-23T07:05:31;20.50;99.90
13049;DHT22;6591;51.446;5.404;2022-07-23T07:07:58;22.70;99.90
13049;DHT22;6591;51.446;5.404;2022-07-23T07:10:25;21.80;99.90
13049;DHT22;6591;51.446;5.404;2022-07-23T07:12:55;21.00;99.90
13049;DHT22;6591;51.446;5.404;2022-07-23T07:15:25;22.50;99.90
13049;DHT22;6591;51.446;5.404;2022-07-23T07:17:52;23.10;99.90
13049;DHT22;6591;51.446;5.404;2022-07-23T07:20:19;21.40;99.90
13049;DHT22;6591;51.446;5.404;2022-07-23T07:22:48;21.50;99.90
13049;DHT22;6591;51.446;5.404;2022-07-23T07:25:15;23.00;99.90
13049;DHT22;6591;51.446;5.404;2022-07-23T07:27:42;23.90;99.90
13049;DHT22;6591;51.446;5.404;2022-07-23T07:30:12;22.00;99.90
13049;DHT22;6591;51.446;5.404;2022-07-23T07:32:40;22.80;99.90
13049;DHT22;6591;51.446;5.404;2022-07-23T07:35:24;22.30;99.90
13049;DHT22;6591;51.446;5.404;2022-07-23T07:37:55;22.40;99.90
13049;DHT22;6591;51.446;5.404;2022-07-23T07:40:25;23.60;99.90
13049;DHT22;6591;51.446;5.404;2022-07-23T07:42:59;23.10;99.90
13049;DHT22;6591;51.446;5.404;2022-07-23T07:45:27;22.80;99.90
13049;DHT22;6591;51.446;5.404;2022-07-23T07:47:57;23.00;99.80
13049;DHT22;6591;51.446;5.404;2022-07-23T07:50:25;23.40;99.90
13049;DHT22;6591;51.446;5.404;2022-07-23T07:52:53;24.50;99.70
13049;DHT22;6591;51.446;5.404;2022-07-23T07:55:20;23.30;98.90
13049;DHT22;6591;51.446;5.404;2022-07-23T07:57:49;23.40;98.90
13049;DHT22;6591;51.446;5.404;2022-07-23T08:00:16;23.50;99.00
13049;DHT22;6591;51.446;5.404;2022-07-23T08:02:46;23.70;99.30
13049;DHT22;6591;51.446;5.404;2022-07-23T08:05:27;23.80;99.80
13049;DHT22;6591;51.446;5.404;2022-07-23T08:07:58;24.10;99.50
13049;DHT22;6591;51.446;5.404;2022-07-23T08:10:31;24.30;99.80
13049;DHT22;6591;51.446;5.404;2022-07-23T08:12:58;24.50;98.80
13049;DHT22;6591;51.446;5.404;2022-07-23T08:15:33;24.80;98.00
13049;DHT22;6591;51.446;5.404;2022-07-23T08:18:00;24.90;97.50
13049;DHT22;6591;51.446;5.404;2022-07-23T08:20:27;25.10;96.70
13049;DHT22;6591;51.446;5.404;2022-07-23T08:22:59;25.30;96.30
13049;DHT22;6591;51.446;5.404;2022-07-23T08:25:34;25.30;95.20
13049;DHT22;6591;51.446;5.404;2022-07-23T08:28:04;25.50;95.00
13049;DHT22;6591;51.446;5.404;2022-07-23T08:30:34;25.50;95.40
13049;DHT22;6591;51.446;5.404;2022-07-23T08:33:08;25.70;94.60
13049;DHT22;6591;51.446;5.404;2022-07-23T08:35:59;25.80;94.00
13049;DHT22;6591;51.446;5.404;2022-07-23T08:38:26;25.90;94.40
13049;DHT22;6591;51.446;5.404;2022-07-23T08:40:58;25.90;94.30
13049;DHT22;6591;51.446;5.404;2022-07-23T08:43:30;25.90;94.80
13049;DHT22;6591;51.446;5.404;2022-07-23T08:46:02;26.10;94.60
13049;DHT22;6591;51.446;5.404;2022-07-23T08:48:33;26.20;94.00
13049;DHT22;6591;51.446;5.404;2022-07-23T08:51:03;26.40;92.40
13049;DHT22;6591;51.446;5.404;2022-07-23T08:53:34;26.50;92.80
13049;DHT22;6591;51.446;5.404;2022-07-23T08:56:05;26.60;92.60
13049;DHT22;6591;51.446;5.404;2022-07-23T08:58:34;26.80;92.20
13049;DHT22;6591;51.446;5.404;2022-07-23T09:01:01;27.20;91.50
13049;DHT22;6591;51.446;5.404;2022-07-23T09:03:32;27.00;90.70
13049;DHT22;6591;51.446;5.404;2022-07-23T09:06:02;27.00;90.10
13049;DHT22;6591;51.446;5.404;2022-07-23T09:08:41;27.10;90.10
13049;DHT22;6591;51.446;5.404;2022-07-23T09:11:15;27.60;87.00
13049;DHT22;6591;51.446;5.404;2022-07-23T09:13:50;27.10;84.90
13049;DHT22;6591;51.446;5.404;2022-07-23T09:16:26;27.10;87.50
13049;DHT22;6591;51.446;5.404;2022-07-23T09:19:05;27.00;87.00
13049;DHT22;6591;51.446;5.404;2022-07-23T09:21:35;27.10;86.50
13049;DHT22;6591;51.446;5.404;2022-07-23T09:24:06;27.20;88.50
13049;DHT22;6591;51.446;5.404;2022-07-23T09:26:42;27.10;89.50
13049;DHT22;6591;51.446;5.404;2022-07-23T09:29:17;27.40;89.10
13049;DHT22;6591;51.446;5.404;2022-07-23T09:31:51;27.50;89.60
13049;DHT22;6591;51.446;5.404;2022-07-23T09:34:23;27.70;90.00
13049;DHT22;6591;51.446;5.404;2022-07-23T09:37:11;27.80;88.80
13049;DHT22;6591;51.446;5.404;2022-07-23T09:39:42;28.20;88.60
13049;DHT22;6591;51.446;5.404;2022-07-23T09:42:21;28.40;88.10
13049;DHT22;6591;51.446;5.404;2022-07-23T09:44:56;28.70;82.80
13049;DHT22;6591;51.446;5.404;2022-07-23T09:47:31;28.80;83.10
13049;DHT22;6591;51.446;5.404;2022-07-23T09:50:08;28.80;83.00
13049;DHT22;6591;51.446;5.404;2022-07-23T09:52:46;28.90;82.30
13049;DHT22;6591;51.446;5.404;2022-07-23T09:55:17;29.00;80.20
13049;DHT22;6591;51.446;5.404;2022-07-23T09:57:46;29.10;81.40
13049;DHT22;6591;51.446;5.404;2022-07-23T10:00:17;29.10;80.50
13049;DHT22;6591;51.446;5.404;2022-07-23T10:02:47;29.10;81.10
13049;DHT22;6591;51.446;5.404;2022-07-23T10:05:30;29.10;82.60
13049;DHT22;6591;51.446;5.404;2022-07-23T10:08:40;29.30;83.00
13049;DHT22;6591;51.446;5.404;2022-07-23T10:11:37;29.60;82.60
13049;DHT22;6591;51.446;5.404;2022-07-23T10:14:20;29.90;79.90
13049;DHT22;6591;51.446;5.404;2022-07-23T10:16:57;30.10;76.30
13049;DHT22;6591;51.446;5.404;2022-07-23T10:19:29;30.40;75.80
13049;DHT22;6591;51.446;5.404;2022-07-23T10:22:07;30.10;76.00
13049;DHT22;6591;51.446;5.404;2022-07-23T10:31:26;30.70;75.60
13049;DHT22;6591;51.446;5.404;2022-07-23T10:34:58;30.90;73.10
13049;DHT22;6591;51.446;5.404;2022-07-23T10:37:46;31.20;67.80
13049;DHT22;6591;51.446;5.404;2022-07-23T10:40:18;31.20;69.00
13049;DHT22;6591;51.446;5.404;2022-07-23T10:42:52;31.30;66.70
13049;DHT22;6591;51.446;5.404;2022-07-23T10:45:31;31.30;66.10
13049;DHT22;6591;51.446;5.404;2022-07-23T10:48:18;31.30;66.60
13049;DHT22;6591;51.446;5.404;2022-07-23T10:51:16;31.30;66.00
13049;DHT22;6591;51.446;5.404;2022-07-23T10:53:53;31.40;69.30
13049;DHT22;6591;51.446;5.404;2022-07-23T10:57:04;31.50;69.60
13049;DHT22;6591;51.446;5.404;2022-07-23T11:02:43;31.80;58.10
13049;DHT22;6591;51.446;5.404;2022-07-23T11:05:24;31.70;62.80
13049;DHT22;6591;51.446;5.404;2022-07-23T11:08:19;31.60;61.70
13049;DHT22;6591;51.446;5.404;2022-07-23T11:13:42;31.40;61.30
13049;DHT22;6591;51.446;5.404;2022-07-23T11:16:16;32.60;62.20
13049;DHT22;6591;51.446;5.404;2022-07-23T11:18:56;31.30;65.20
13049;DHT22;6591;51.446;5.404;2022-07-23T11:23:59;31.50;63.60
13049;DHT22;6591;51.446;5.404;2022-07-23T11:32:18;31.90;59.00
13049;DHT22;6591;51.446;5.404;2022-07-23T11:34:52;31.90;61.20
13049;DHT22;6591;51.446;5.404;2022-07-23T11:37:36;32.00;62.40
13049;DHT22;6591;51.446;5.404;2022-07-23T11:40:10;32.10;60.70
13049;DHT22;6591;51.446;5.404;2022-07-23T11:42:51;32.30;60.90
13049;DHT22;6591;51.446;5.404;2022-07-23T11:45:20;32.40;60.30
13049;DHT22;6591;51.446;5.404;2022-07-23T11:47:52;32.40;59.40
13049;DHT22;6591;51.446;5.404;2022-07-23T11:50:19;32.30;59.30
13049;DHT22;6591;51.446;5.404;2022-07-23T11:52:50;32.20;59.00
13049;DHT22;6591;51.446;5.404;2022-07-23T11:55:17;32.00;59.60
13049;DHT22;6591;51.446;5.404;2022-07-23T11:57:46;31.90;59.40
13049;DHT22;6591;51.446;5.404;2022-07-23T12:00:18;32.10;59.40
13049;DHT22;6591;51.446;5.404;2022-07-23T12:03:00;30.40;56.20
13049;DHT22;6591;51.446;5.404;2022-07-23T12:05:33;32.00;57.40
13049;DHT22;6591;51.446;5.404;2022-07-23T12:08:06;31.80;58.20
13049;DHT22;6591;51.446;5.404;2022-07-23T12:10:43;32.00;56.90
13049;DHT22;6591;51.446;5.404;2022-07-23T12:13:15;32.00;57.10
13049;DHT22;6591;51.446;5.404;2022-07-23T12:15:53;32.00;57.10
13049;DHT22;6591;51.446;5.404;2022-07-23T12:18:25;32.00;55.70
13049;DHT22;6591;51.446;5.404;2022-07-23T12:20:57;32.10;57.20
13049;DHT22;6591;51.446;5.404;2022-07-23T12:23:29;32.20;58.40
13049;DHT22;6591;51.446;5.404;2022-07-23T12:26:01;32.30;58.80
13049;DHT22;6591;51.446;5.404;2022-07-23T12:28:31;32.70;58.50
13049;DHT22;6591;51.446;5.404;2022-07-23T12:31:00;33.10;58.80
13049;DHT22;6591;51.446;5.404;2022-07-23T12:33:34;33.40;58.00
13049;DHT22;6591;51.446;5.404;2022-07-23T12:36:09;33.80;56.60
13049;DHT22;6591;51.446;5.404;2022-07-23T12:38:46;34.10;56.40
13049;DHT22;6591;51.446;5.404;2022-07-23T12:41:16;34.40;55.70
13049;DHT22;6591;51.446;5.404;2022-07-23T12:43:45;34.50;55.10
13049;DHT22;6591;51.446;5.404;2022-07-23T12:46:17;34.70;54.00
13049;DHT22;6591;51.446;5.404;2022-07-23T12:48:54;34.70;52.30
13049;DHT22;6591;51.446;5.404;2022-07-23T12:51:47;34.80;52.60
13049;DHT22;6591;51.446;5.404;2022-07-23T12:54:17;34.80;53.80
13049;DHT22;6591;51.446;5.404;2022-07-23T12:56:46;34.90;53.50
13049;DHT22;6591;51.446;5.404;2022-07-23T12:59:15;35.00;53.50
13049;DHT22;6591;51.446;5.404;2022-07-23T13:01:57;35.10;53.50
13049;DHT22;6591;51.446;5.404;2022-07-23T13:04:29;35.30;52.10
13049;DHT22;6591;51.446;5.404;2022-07-23T13:07:01;35.40;52.50
13049;DHT22;6591;51.446;5.404;2022-07-23T13:09:33;35.50;52.60
13049;DHT22;6591;51.446;5.404;2022-07-23T13:12:10;35.80;52.60
13049;DHT22;6591;51.446;5.404;2022-07-23T13:14:38;36.00;52.20
13049;DHT22;6591;51.446;5.404;2022-07-23T13:17:11;36.20;50.80
13049;DHT22;6591;51.446;5.404;2022-07-23T13:19:38;36.30;51.00
13049;DHT22;6591;51.446;5.404;2022-07-23T13:22:05;36.30;50.60
13049;DHT22;6591;51.446;5.404;2022-07-23T13:24:36;36.40;50.30
13049;DHT22;6591;51.446;5.404;2022-07-23T13:27:06;36.50;50.20
13049;DHT22;6591;51.446;5.404;2022-07-23T13:29:38;36.60;50.00
13049;DHT22;6591;51.446;5.404;2022-07-23T13:32:05;36.70;50.60
13049;DHT22;6591;51.446;5.404;2022-07-23T13:34:36;37.00;50.00
13049;DHT22;6591;51.446;5.404;2022-07-23T13:37:09;37.20;48.90
13049;DHT22;6591;51.446;5.404;2022-07-23T13:39:36;37.30;47.30
13049;DHT22;6591;51.446;5.404;2022-07-23T13:42:06;37.20;47.60
13049;DHT22;6591;51.446;5.404;2022-07-23T13:44:38;37.20;46.00
13049;DHT22;6591;51.446;5.404;2022-07-23T13:47:05;37.00;46.30
13049;DHT22;6591;51.446;5.404;2022-07-23T13:49:33;36.80;46.60
13049;DHT22;6591;51.446;5.404;2022-07-23T13:52:02;36.80;47.50
13049;DHT22;6591;51.446;5.404;2022-07-23T13:54:34;36.80;48.10
13049;DHT22;6591;51.446;5.404;2022-07-23T13:57:01;36.90;47.90
13049;DHT22;6591;51.446;5.404;2022-07-23T13:59:29;37.10;47.80
13049;DHT22;6591;51.446;5.404;2022-07-23T14:01:56;37.30;47.40
13049;DHT22;6591;51.446;5.404;2022-07-23T14:04:44;37.50;46.50
13049;DHT22;6591;51.446;5.404;2022-07-23T14:07:11;35.70;44.90
13049;DHT22;6591;51.446;5.404;2022-07-23T14:09:43;37.40;46.10
13049;DHT22;6591;51.446;5.404;2022-07-23T14:12:10;37.40;46.50
13049;DHT22;6591;51.446;5.404;2022-07-23T14:14:38;37.40;46.00
13049;DHT22;6591;51.446;5.404;2022-07-23T14:17:05;37.30;45.80
13049;DHT22;6591;51.446;5.404;2022-07-23T14:19:38;37.30;45.50
13049;DHT22;6591;51.446;5.404;2022-07-23T14:22:05;37.30;46.00
13049;DHT22;6591;51.446;5.404;2022-07-23T14:24:33;37.40;46.30
13049;DHT22;6591;51.446;5.404;2022-07-23T14:27:03;37.50;46.20
13049;DHT22;6591;51.446;5.404;2022-07-23T14:29:32;37.60;45.40
13049;DHT22;6591;51.446;5.404;2022-07-23T14:32:00;36.00;43.80
13049;DHT22;6591;51.446;5.404;2022-07-23T14:34:28;37.50;44.30
13049;DHT22;6591;51.446;5.404;2022-07-23T14:36:56;37.30;44.20
13049;DHT22;6591;51.446;5.404;2022-07-23T14:39:26;37.10;44.30
13049;DHT22;6591;51.446;5.404;2022-07-23T14:41:57;36.80;44.40
13049;DHT22;6591;51.446;5.404;2022-07-23T14:44:24;36.60;44.30
13049;DHT22;6591;51.446;5.404;2022-07-23T14:46:55;35.80;43.80
13049;DHT22;6591;51.446;5.404;2022-07-23T14:49:22;34.60;43.50
13049;DHT22;6591;51.446;5.404;2022-07-23T14:51:54;35.60;44.70
13049;DHT22;6591;51.446;5.404;2022-07-23T14:54:22;34.60;44.40
13049;DHT22;6591;51.446;5.404;2022-07-23T14:56:54;35.20;45.10
13049;DHT22;6591;51.446;5.404;2022-07-23T14:59:23;34.90;45.40
13049;DHT22;6591;51.446;5.404;2022-07-23T15:01:52;34.70;45.80
13049;DHT22;6591;51.446;5.404;2022-07-23T15:04:19;34.60;46.00
13049;DHT22;6591;51.446;5.404;2022-07-23T15:07:03;34.40;46.30
13049;DHT22;6591;51.446;5.404;2022-07-23T15:09:31;34.20;46.10
13049;DHT22;6591;51.446;5.404;2022-07-23T15:12:03;34.00;46.00
13049;DHT22;6591;51.446;5.404;2022-07-23T15:14:33;33.80;46.30
13049;DHT22;6591;51.446;5.404;2022-07-23T15:17:01;33.60;46.40
13049;DHT22;6591;51.446;5.404;2022-07-23T15:19:29;33.40;46.50
13049;DHT22;6591;51.446;5.404;2022-07-23T15:21:56;33.30;47.30
13049;DHT22;6591;51.446;5.404;2022-07-23T15:24:28;33.30;48.00
13049;DHT22;6591;51.446;5.404;2022-07-23T15:26:56;33.40;48.70
13049;DHT22;6591;51.446;5.404;2022-07-23T15:29:25;33.70;49.20
13049;DHT22;6591;51.446;5.404;2022-07-23T15:31:52;34.00;49.10
13049;DHT22;6591;51.446;5.404;2022-07-23T15:34:40;32.60;47.50
13049;DHT22;6591;51.446;5.404;2022-07-23T15:37:08;34.80;47.60
13049;DHT22;6591;51.446;5.404;2022-07-23T15:39:37;35.00;47.20
13049;DHT22;6591;51.446;5.404;2022-07-23T15:42:04;35.30;47.50
13049;DHT22;6591;51.446;5.404;2022-07-23T15:44:42;35.50;47.20
13049;DHT22;6591;51.446;5.404;2022-07-23T15:47:15;35.70;47.00
13049;DHT22;6591;51.446;5.404;2022-07-23T15:49:45;35.90;46.10
13049;DHT22;6591;51.446;5.404;2022-07-23T15:52:13;35.90;45.70
13049;DHT22;6591;51.446;5.404;2022-07-23T15:54:40;35.90;45.60
13049;DHT22;6591;51.446;5.404;2022-07-23T15:57:08;35.90;45.60
13049;DHT22;6591;51.446;5.404;2022-07-23T15:59:36;35.80;45.70
13049;DHT22;6591;51.446;5.404;2022-07-23T16:02:06;35.90;46.00
13049;DHT22;6591;51.446;5.404;2022-07-23T16:04:34;36.00;46.10
13049;DHT22;6591;51.446;5.404;2022-07-23T16:07:01;36.20;46.40
13049;DHT22;6591;51.446;5.404;2022-07-23T16:09:31;36.40;46.60
13049;DHT22;6591;51.446;5.404;2022-07-23T16:11:58;36.60;46.20
13049;DHT22;6591;51.446;5.404;2022-07-23T16:14:25;36.90;45.90
13049;DHT22;6591;51.446;5.404;2022-07-23T16:16:52;37.20;45.60
13049;DHT22;6591;51.446;5.404;2022-07-23T16:19:22;37.30;45.30
13049;DHT22;6591;51.446;5.404;2022-07-23T16:21:49;37.40;44.80
13049;DHT22;6591;51.446;5.404;2022-07-23T16:24:17;37.50;44.40
13049;DHT22;6591;51.446;5.404;2022-07-23T16:26:45;37.50;44.40
13049;DHT22;6591;51.446;5.404;2022-07-23T16:29:14;38.10;44.30
13049;DHT22;6591;51.446;5.404;2022-07-23T16:31:46;37.50;43.60